Naples, KY

9:37 AM EST on December 20, 2014 (GMT -0500)
Boy Scout from Ashland | Change Station
CLOSE
Current Station
Personal Weather Station
Location: Ashland, KY
Elevation: 689 ft
Nearby Weather Stations

Elev 689 ft 38.44 °N, 82.65 °W | Updated 5 seconds ago

Overcast
Overcast
32.3 °F
Feels Like 32 °F
N
0.0
Wind Variable Wind from East
Gusts 0.0 mph

Today
High -- | Low -- °F
--% Chance of Precip.
Yesterday
High -- | Low -- °F
Precip. -- in
7:43 AM 5:12 PM
Waning Crescent, 3% visible
Pressure 30.29 in
Visibility 8.0 miles
Clouds Overcast 5500 ft
Windchill 32 °F
Dew Point 27 °F
Humidity 81%
Rainfall 0.00 in
Snow Depth Not available.
UV 0 out of 12
Pollen .10 out of 12
Air Quality Not available.
Flu Activity Not available.
METAR KHTS 201351Z 00000KT 8SM OVC055 M01/M04 A3026 RMK AO2 SLP255 T10111044

More Conditions Fewer Conditions

Pressure 30.29 in
Visibility 8.0 miles
Clouds Overcast 5500 ft
Windchill 32 °F
Dew Point 27 °F
Humidity 81%
Rainfall 0.00 in
Snow Depth Not available.
UV 0 out of 12
Pollen .10 out of 12
Air Quality Not available.
Flu Activity Not available.
METAR KHTS 201351Z 00000KT 8SM OVC055 M01/M04 A3026 RMK AO2 SLP255 T10111044

More Conditions Fewer Conditions

10-Day Weather Forecast

Almanac

Astronomy

Dec. 20, 2014 Rise Set
Actual Time
Civil Twilight
Nautical Twilight
Astronomical Twilight
Moon
Length of Visible Light
Length of Day
Tomorrow will be .
, % of the Moon is Illuminated

Today's Extremes

State Highs State Lows

Community

WunderPhotos

Upload Photos

1,779,174 photos uploaded!

WunderBlogs® & News

Nearby

Air Quality

  Air Quality AQ Index Pollutant
Not available.

Snow Depth

Station Depth Elevation

Earthquake Activity

City Distance Mag. Time & Date
Minimum magnitude displayed is 2.5.

Coastal Water Temperatures

Place Temperature

Nearby Weather Stations